Time;durP1;ratioP1;P1;durP2;ratioP2;P2;SDS_P1;SDS_P2;PMS_P1;PMS_P2;Temp;Humidity;BMP_temperature;BMP_pressure;BME280_temperature;BME280_humidity;BME280_pressure;Samples;Min_cycle;Max_cycle;Signal;HPM_P1;HPM_P2
2023/06/13 00:02:03;;;;;;;4.53;4.03;;;18.40;66.90;;;;;;6084665;23;20426;-74
2023/06/13 00:04:30;;;;;;;4.43;3.87;;;18.40;67.20;;;;;;6084909;23;20517;-74
2023/06/13 00:06:58;;;;;;;4.40;4.00;;;18.40;67.40;;;;;;6089755;23;20509;-73
2023/06/13 00:09:26;;;;;;;4.77;4.47;;;18.40;67.50;;;;;;6086729;23;20438;-74
2023/06/13 00:11:53;;;;;;;4.60;4.20;;;18.30;67.60;;;;;;6088059;23;20929;-74
2023/06/13 00:14:23;;;;;;;4.57;4.27;;;18.30;67.80;;;;;;6086771;23;20560;-73
2023/06/13 00:16:51;;;;;;;4.63;4.23;;;18.20;68.10;;;;;;6091807;23;20443;-73
2023/06/13 00:19:19;;;;;;;4.30;3.93;;;18.20;68.40;;;;;;6086672;23;20434;-74
2023/06/13 00:21:46;;;;;;;5.00;4.60;;;18.10;68.40;;;;;;6087821;23;20510;-74
2023/06/13 00:24:13;;;;;;;4.60;4.30;;;18.10;68.60;;;;;;6084755;23;20454;-73
2023/06/13 00:26:40;;;;;;;4.57;4.17;;;18.10;68.80;;;;;;6088951;23;20438;-74
2023/06/13 00:29:08;;;;;;;4.63;4.30;;;18.10;69.10;;;;;;6087293;23;20510;-74
2023/06/13 00:31:36;;;;;;;6.17;4.20;;;18.10;69.30;;;;;;6087166;23;20469;-73
2023/06/13 00:34:03;;;;;;;4.20;3.90;;;18.00;69.30;;;;;;6085246;23;20862;-74
2023/06/13 00:36:33;;;;;;;4.43;4.07;;;17.90;69.50;;;;;;6081224;23;20529;-74
2023/06/13 00:39:01;;;;;;;4.77;4.37;;;17.90;69.60;;;;;;6085336;23;20947;-73
2023/06/13 00:41:31;;;;;;;4.40;4.00;;;17.90;69.90;;;;;;6093885;23;20438;-74
2023/06/13 00:43:58;;;;;;;4.37;3.87;;;18.00;70.40;;;;;;6080187;23;20474;-74
2023/06/13 00:46:29;;;;;;;4.93;4.53;;;17.80;70.40;;;;;;6086524;23;20642;-71
2023/06/13 00:48:58;;;;;;;4.27;3.90;;;17.80;70.50;;;;;;6088026;23;20457;-71
2023/06/13 00:51:27;;;;;;;4.67;4.37;;;17.70;70.70;;;;;;6087403;23;20467;-71
2023/06/13 00:53:55;;;;;;;4.77;4.23;;;17.70;70.90;;;;;;6084195;23;20431;-72
2023/06/13 00:56:24;;;;;;;4.53;4.13;;;17.60;71.10;;;;;;6077399;23;20974;-72
2023/06/13 00:58:54;;;;;;;5.10;4.70;;;17.60;71.40;;;;;;6085112;23;20513;-72
2023/06/13 01:01:22;;;;;;;4.53;4.20;;;17.60;71.50;;;;;;6087497;23;20442;-72
2023/06/13 01:03:50;;;;;;;4.47;4.13;;;17.80;71.90;;;;;;6081582;23;20466;-72
2023/06/13 01:06:19;;;;;;;4.30;3.90;;;17.50;71.80;;;;;;6078573;23;20478;-73
2023/06/13 01:08:46;;;;;;;5.00;4.50;;;17.50;72.10;;;;;;6085176;23;20497;-74
2023/06/13 01:11:19;;;;;;;5.47;3.87;;;17.50;72.40;;;;;;6086858;23;20448;-73
2023/06/13 01:13:52;;;;;;;4.83;4.17;;;17.40;72.60;;;;;;6083000;23;21010;-73
2023/06/13 01:16:24;;;;;;;4.13;3.83;;;17.40;72.80;;;;;;6088430;23;20837;-73
2023/06/13 01:18:52;;;;;;;4.10;3.80;;;17.40;73.10;;;;;;6088626;23;20473;-73
2023/06/13 01:21:24;;;;;;;4.97;4.57;;;17.30;73.30;;;;;;6088042;23;20445;-74
2023/06/13 01:23:58;;;;;;;6.23;3.97;;;17.30;73.50;;;;;;6082518;23;20450;-73
2023/06/13 01:26:46;;;;;;;5.20;4.70;;;17.30;73.60;;;;;;6081774;23;20434;-73
2023/06/13 01:29:16;;;;;;;4.07;3.77;;;17.20;74.00;;;;;;6087407;23;20794;-73
2023/06/13 01:31:46;;;;;;;4.50;4.10;;;17.20;74.10;;;;;;6089512;23;20434;-73
2023/06/13 01:34:14;;;;;;;6.20;3.60;;;17.10;75.10;;;;;;6087234;23;21000;-73
2023/06/13 01:36:41;;;;;;;4.60;3.80;;;17.20;74.40;;;;;;6082082;23;20446;-73
2023/06/13 01:39:08;;;;;;;4.30;3.77;;;17.10;74.60;;;;;;6083505;23;20434;-73
2023/06/13 01:41:36;;;;;;;4.43;4.07;;;17.00;74.80;;;;;;6090142;23;20688;-73
2023/06/13 01:44:06;;;;;;;5.37;4.00;;;17.00;75.20;;;;;;6089665;23;20545;-73
2023/06/13 01:46:43;;;;;;;3.83;3.53;;;17.00;75.50;;;;;;6084836;23;20440;-73
2023/06/13 01:49:20;;;;;;;4.30;4.00;;;16.90;75.50;;;;;;6083921;23;20521;-72
2023/06/13 01:51:59;;;;;;;5.50;4.17;;;16.90;75.80;;;;;;6083574;23;20501;-73
2023/06/13 01:54:28;;;;;;;3.70;3.40;;;17.10;76.30;;;;;;6082789;23;21024;-72
2023/06/13 01:56:58;;;;;;;5.50;3.80;;;16.80;76.30;;;;;;6090346;23;20437;-72
2023/06/13 01:59:27;;;;;;;4.00;3.70;;;16.80;76.60;;;;;;6088477;23;20525;-72
2023/06/13 02:01:57;;;;;;;4.50;4.20;;;16.80;76.90;;;;;;6088767;23;21023;-73
2023/06/13 02:04:24;;;;;;;4.33;4.03;;;16.70;77.10;;;;;;6090430;23;20885;-72
2023/06/13 02:06:50;;;;;;;4.37;3.83;;;16.70;77.40;;;;;;6087586;23;20442;-73
2023/06/13 02:09:18;;;;;;;4.17;3.80;;;16.60;77.60;;;;;;6089878;23;20435;-73
2023/06/13 02:11:45;;;;;;;4.30;3.90;;;16.60;77.70;;;;;;6087801;23;20484;-73
2023/06/13 02:14:12;;;;;;;4.10;3.70;;;16.60;77.90;;;;;;6089310;23;20831;-73
2023/06/13 02:16:40;;;;;;;4.80;4.03;;;16.60;78.20;;;;;;6087907;23;20435;-72
2023/06/13 02:19:08;;;;;;;4.57;4.10;;;16.50;78.30;;;;;;6081223;23;20444;-73
2023/06/13 02:21:35;;;;;;;4.40;4.00;;;16.50;78.50;;;;;;6086674;23;20783;-73
2023/06/13 02:24:03;;;;;;;4.80;4.00;;;16.50;78.70;;;;;;6078513;23;20866;-73
2023/06/13 02:26:30;;;;;;;4.23;3.93;;;16.50;78.90;;;;;;6090624;23;20442;-73
2023/06/13 02:28:58;;;;;;;4.23;3.83;;;16.50;79.10;;;;;;6088541;23;20438;-73
2023/06/13 02:31:26;;;;;;;4.17;3.77;;;16.50;79.40;;;;;;6093682;23;20430;-73
2023/06/13 02:33:54;;;;;;;4.10;3.77;;;16.50;79.40;;;;;;6088669;23;20454;-73
2023/06/13 02:36:21;;;;;;;4.30;3.90;;;16.40;79.50;;;;;;6077588;23;20439;-74
2023/06/13 02:38:48;;;;;;;4.80;4.40;;;16.40;79.80;;;;;;6084561;23;20505;-73
2023/06/13 02:41:15;;;;;;;4.57;4.17;;;16.40;80.00;;;;;;6088848;23;20947;-73
2023/06/13 02:43:42;;;;;;;4.03;3.70;;;16.40;80.30;;;;;;6088421;23;20592;-72
2023/06/13 02:46:10;;;;;;;4.50;4.10;;;16.30;80.50;;;;;;6089222;23;20437;-72
2023/06/13 02:48:37;;;;;;;3.83;3.53;;;16.30;80.80;;;;;;6088858;23;20434;-72
2023/06/13 02:51:07;;;;;;;6.00;4.07;;;16.20;81.00;;;;;;6089549;23;20435;-72
2023/06/13 02:53:34;;;;;;;4.23;3.70;;;16.20;81.40;;;;;;6079587;23;20451;-72
2023/06/13 02:56:02;;;;;;;3.90;3.60;;;16.10;81.30;;;;;;6088812;23;20521;-73
2023/06/13 02:58:29;;;;;;;4.37;4.07;;;16.10;81.80;;;;;;6090401;23;20431;-72
2023/06/13 03:00:56;;;;;;;7.33;4.10;;;16.10;82.30;;;;;;6087790;23;20521;-72
2023/06/13 03:03:23;;;;;;;4.80;3.93;;;16.00;82.40;;;;;;6085962;23;20462;-72
2023/06/13 03:05:56;;;;;;;3.70;3.40;;;16.00;82.60;;;;;;6090393;23;20970;-73
2023/06/13 03:08:25;;;;;;;4.13;3.73;;;16.00;82.70;;;;;;6087794;23;20438;-73
2023/06/13 03:10:51;;;;;;;4.20;3.80;;;16.00;82.80;;;;;;6084305;23;20469;-72
2023/06/13 03:13:19;;;;;;;4.00;3.60;;;16.00;83.00;;;;;;6089670;23;20514;-72
2023/06/13 03:15:47;;;;;;;4.10;3.70;;;15.90;83.00;;;;;;6089027;23;20458;-72
2023/06/13 03:18:14;;;;;;;3.87;3.50;;;15.90;83.30;;;;;;6084365;23;20481;-72
2023/06/13 03:20:46;;;;;;;3.77;3.43;;;15.90;83.50;;;;;;6082179;23;20459;-72
2023/06/13 03:23:14;;;;;;;5.27;4.00;;;15.90;83.80;;;;;;6090036;23;20476;-73
2023/06/13 03:25:43;;;;;;;4.80;3.77;;;15.90;84.00;;;;;;6089378;23;20814;-72
2023/06/13 03:28:10;;;;;;;4.60;3.90;;;15.80;83.90;;;;;;6087714;23;21111;-72
2023/06/13 03:30:38;;;;;;;3.90;3.70;;;15.80;84.10;;;;;;6084475;23;21052;-72
2023/06/13 03:33:05;;;;;;;4.23;3.93;;;15.80;84.00;;;;;;6084407;23;20438;-72
2023/06/13 03:35:34;;;;;;;4.27;3.67;;;15.80;84.10;;;;;;6089995;23;20457;-73
2023/06/13 03:38:02;;;;;;;3.83;3.40;;;15.90;84.30;;;;;;6082629;23;20520;-69
2023/06/13 03:40:29;;;;;;;4.57;4.17;;;15.80;84.50;;;;;;6086072;23;20433;-69
2023/06/13 03:42:58;;;;;;;4.50;4.10;;;15.90;84.50;;;;;;6087608;23;20430;-69
2023/06/13 03:45:25;;;;;;;3.83;3.53;;;15.90;84.20;;;;;;6085704;23;20470;-69
2023/06/13 03:47:52;;;;;;;4.33;3.73;;;16.00;84.30;;;;;;6085081;23;20431;-69
2023/06/13 03:50:19;;;;;;;4.13;3.80;;;15.90;84.10;;;;;;6085714;23;20439;-68
2023/06/13 03:52:47;;;;;;;4.53;4.13;;;15.90;84.30;;;;;;6087702;23;20787;-68
2023/06/13 03:55:14;;;;;;;3.70;3.40;;;15.90;84.30;;;;;;6087142;23;20450;-68
2023/06/13 03:57:41;;;;;;;3.93;3.57;;;15.90;84.30;;;;;;6086714;23;20434;-68
2023/06/13 04:00:11;;;;;;;4.40;4.00;;;15.90;84.30;;;;;;6083765;23;20945;-68
2023/06/13 04:02:38;;;;;;;4.03;3.67;;;15.90;84.40;;;;;;6088293;23;20445;-68
2023/06/13 04:05:07;;;;;;;4.30;4.00;;;15.90;84.50;;;;;;6082822;23;20519;-69
2023/06/13 04:07:35;;;;;;;4.53;4.13;;;16.00;84.90;;;;;;6089314;23;20594;-68
2023/06/13 04:10:02;;;;;;;4.37;3.97;;;16.00;84.80;;;;;;6090664;23;20545;-68
2023/06/13 04:12:30;;;;;;;4.90;3.80;;;16.00;84.70;;;;;;6088135;23;20879;-67
2023/06/13 04:14:57;;;;;;;4.30;3.40;;;16.00;84.70;;;;;;6080334;23;20504;-68
2023/06/13 04:17:26;;;;;;;3.97;3.57;;;16.20;85.00;;;;;;6084524;23;20438;-68
2023/06/13 04:19:53;;;;;;;4.23;3.60;;;16.00;85.20;;;;;;6086711;23;20442;-68
2023/06/13 04:22:20;;;;;;;4.00;3.70;;;16.20;85.50;;;;;;6088780;23;21005;-69
2023/06/13 04:24:47;;;;;;;5.23;3.50;;;16.00;85.20;;;;;;6082941;23;20473;-69
2023/06/13 04:27:19;;;;;;;4.10;3.70;;;16.10;85.20;;;;;;6086685;23;20517;-69
2023/06/13 04:29:47;;;;;;;4.43;3.43;;;16.10;85.00;;;;;;6085742;23;20434;-69
2023/06/13 04:32:17;;;;;;;3.93;3.63;;;16.20;85.30;;;;;;6086625;23;20442;-67
2023/06/13 04:34:52;;;;;;;3.80;3.50;;;16.20;85.30;;;;;;6080812;23;20454;-68
2023/06/13 04:37:23;;;;;;;3.87;3.57;;;16.30;85.20;;;;;;6079319;23;20483;-72
2023/06/13 04:39:51;;;;;;;7.40;3.40;;;16.40;85.20;;;;;;6087581;23;20434;-72
2023/06/13 04:42:24;;;;;;;3.70;3.40;;;16.40;85.10;;;;;;6082586;23;20755;-71
2023/06/13 04:44:53;;;;;;;4.77;3.60;;;16.40;85.20;;;;;;6085677;23;20489;-72
2023/06/13 04:47:21;;;;;;;5.73;3.67;;;16.50;85.20;;;;;;6082678;23;20779;-73
2023/06/13 04:49:51;;;;;;;5.00;3.70;;;16.50;85.30;;;;;;6072094;23;20435;-72
2023/06/13 04:52:23;;;;;;;4.27;3.87;;;16.60;85.00;;;;;;6079089;23;20996;-72
2023/06/13 04:54:51;;;;;;;4.53;4.13;;;16.60;84.80;;;;;;6083893;23;20814;-72
2023/06/13 04:57:19;;;;;;;6.33;3.60;;;16.60;84.70;;;;;;6083342;23;20427;-72
2023/06/13 04:59:46;;;;;;;3.77;3.53;;;16.70;84.70;;;;;;6086052;23;20436;-73
2023/06/13 05:02:14;;;;;;;4.13;3.73;;;16.60;84.80;;;;;;6082760;23;20773;-73
2023/06/13 05:04:42;;;;;;;3.53;3.30;;;16.60;84.80;;;;;;6084609;23;20462;-72
2023/06/13 05:07:14;;;;;;;3.80;3.50;;;16.70;84.60;;;;;;6088861;23;20439;-72
2023/06/13 05:09:43;;;;;;;4.07;3.77;;;16.80;84.60;;;;;;6088678;23;20936;-73
2023/06/13 05:12:10;;;;;;;4.07;3.50;;;16.60;84.70;;;;;;6087092;23;20802;-73
2023/06/13 05:14:37;;;;;;;6.00;3.97;;;16.60;85.00;;;;;;6090431;23;20454;-72
2023/06/13 05:17:06;;;;;;;18.40;4.80;;;16.70;84.70;;;;;;6084254;23;20434;-72
2023/06/13 05:19:34;;;;;;;4.97;3.40;;;16.70;84.50;;;;;;6080647;23;20437;-72
2023/06/13 05:22:03;;;;;;;5.37;3.33;;;16.80;84.80;;;;;;6081662;23;20434;-72
2023/06/13 05:24:32;;;;;;;7.43;3.77;;;16.90;84.40;;;;;;6078749;23;20561;-73
2023/06/13 05:26:59;;;;;;;3.90;3.30;;;16.90;83.50;;;;;;6084968;23;20467;-72
2023/06/13 05:29:27;;;;;;;3.80;3.40;;;17.00;83.20;;;;;;6075812;23;20441;-73
2023/06/13 05:31:54;;;;;;;4.70;3.33;;;17.00;83.20;;;;;;6081542;23;20444;-73
2023/06/13 05:34:21;;;;;;;3.77;3.47;;;17.00;83.10;;;;;;6087734;23;20482;-73
2023/06/13 05:36:48;;;;;;;4.53;3.50;;;17.30;82.90;;;;;;6087862;23;20438;-73
2023/06/13 05:39:16;;;;;;;3.57;3.27;;;17.10;82.00;;;;;;6083522;23;20458;-73
2023/06/13 05:41:44;;;;;;;7.63;4.00;;;17.10;82.80;;;;;;6092608;23;20456;-73
2023/06/13 05:44:13;;;;;;;4.50;3.33;;;17.20;81.30;;;;;;6079302;23;20545;-72
2023/06/13 05:46:41;;;;;;;6.20;3.77;;;17.20;81.10;;;;;;6089324;23;20454;-72
2023/06/13 05:49:08;;;;;;;4.00;3.47;;;17.20;81.30;;;;;;6091237;23;20461;-72
2023/06/13 05:51:36;;;;;;;5.27;3.50;;;17.30;81.60;;;;;;6088282;23;20466;-73
2023/06/13 05:54:04;;;;;;;3.43;3.13;;;17.50;80.90;;;;;;6080377;23;20467;-73
2023/06/13 05:56:33;;;;;;;3.73;3.40;;;17.50;80.60;;;;;;6094269;23;20449;-71
2023/06/13 05:59:01;;;;;;;4.47;3.33;;;17.50;80.40;;;;;;6091108;23;20438;-73
2023/06/13 06:01:30;;;;;;;4.63;3.30;;;17.50;77.40;;;;;;6086963;23;20435;-72
2023/06/13 06:03:57;;;;;;;3.73;3.33;;;17.60;78.60;;;;;;6088654;23;20450;-73
2023/06/13 06:06:24;;;;;;;3.40;3.03;;;17.80;78.00;;;;;;6084681;23;20439;-73
2023/06/13 06:08:51;;;;;;;4.57;3.40;;;17.70;78.10;;;;;;6085910;23;20438;-72
2023/06/13 06:11:18;;;;;;;4.90;3.20;;;17.80;77.10;;;;;;6086559;23;20526;-73
2023/06/13 06:13:45;;;;;;;3.23;3.03;;;17.80;76.70;;;;;;6082102;23;21036;-72
2023/06/13 06:16:14;;;;;;;3.87;3.43;;;17.90;76.10;;;;;;6085783;23;20976;-72
2023/06/13 06:18:41;;;;;;;3.43;3.23;;;18.00;76.00;;;;;;6082832;23;20918;-73
2023/06/13 06:21:09;;;;;;;3.27;2.97;;;18.00;74.20;;;;;;6084351;23;20434;-72
2023/06/13 06:23:39;;;;;;;3.63;3.30;;;18.10;74.20;;;;;;6079783;23;20561;-73
2023/06/13 06:26:06;;;;;;;6.40;3.60;;;18.20;72.80;;;;;;6082830;23;20474;-74
2023/06/13 06:28:33;;;;;;;4.50;3.27;;;18.30;74.00;;;;;;6084616;23;20468;-72
2023/06/13 06:31:01;;;;;;;4.33;3.50;;;18.30;72.40;;;;;;6085148;23;20532;-73
2023/06/13 06:33:29;;;;;;;4.83;3.40;;;18.30;71.80;;;;;;6093935;23;20453;-73
2023/06/13 06:35:56;;;;;;;3.93;3.27;;;18.30;72.00;;;;;;6086724;23;20926;-73
2023/06/13 06:38:23;;;;;;;3.50;3.00;;;18.30;70.30;;;;;;6083108;23;20442;-73
2023/06/13 06:40:51;;;;;;;3.40;3.10;;;18.40;70.50;;;;;;6089735;23;20434;-73
2023/06/13 06:43:18;;;;;;;4.33;3.03;;;18.40;70.40;;;;;;6090043;23;20973;-73
2023/06/13 06:45:45;;;;;;;3.40;3.10;;;18.50;71.20;;;;;;6088860;23;20568;-73
2023/06/13 06:48:12;;;;;;;2.87;2.67;;;18.50;71.70;;;;;;6085424;23;21003;-73
2023/06/13 06:50:41;;;;;;;3.23;2.93;;;18.70;70.20;;;;;;6090870;23;20860;-73
2023/06/13 06:53:08;;;;;;;3.60;3.30;;;18.70;70.20;;;;;;6088215;23;20489;-73
2023/06/13 06:55:35;;;;;;;3.43;3.17;;;18.70;69.40;;;;;;6098301;23;20510;-73
2023/06/13 06:58:02;;;;;;;3.70;3.17;;;18.70;69.30;;;;;;6086110;23;20445;-74
2023/06/13 07:00:29;;;;;;;3.23;2.80;;;18.80;68.90;;;;;;6086105;23;20948;-74
2023/06/13 07:02:56;;;;;;;3.00;2.80;;;18.90;68.20;;;;;;6087643;23;20438;-73
2023/06/13 07:05:23;;;;;;;3.70;3.50;;;18.90;68.80;;;;;;6085058;23;20466;-73
2023/06/13 07:07:52;;;;;;;5.70;3.77;;;18.90;70.50;;;;;;6075032;23;20430;-74
2023/06/13 07:10:19;;;;;;;5.60;3.00;;;19.00;68.70;;;;;;6089963;23;20434;-74
2023/06/13 07:12:46;;;;;;;3.70;3.30;;;19.10;68.30;;;;;;6084506;23;20530;-75
2023/06/13 07:15:13;;;;;;;4.10;2.90;;;19.30;68.20;;;;;;6081994;23;21145;-73
2023/06/13 07:17:40;;;;;;;3.47;3.17;;;19.30;66.60;;;;;;6089953;23;20529;-73
2023/06/13 07:20:09;;;;;;;3.17;2.97;;;19.30;65.60;;;;;;6090552;23;20484;-73
2023/06/13 07:22:36;;;;;;;3.63;3.07;;;19.30;65.90;;;;;;6090223;23;20418;-73
2023/06/13 07:25:06;;;;;;;3.40;2.93;;;19.50;65.80;;;;;;6083965;23;20464;-73
2023/06/13 07:27:33;;;;;;;5.50;3.00;;;19.60;64.80;;;;;;6094794;23;20437;-73
2023/06/13 07:30:00;;;;;;;3.03;2.83;;;19.70;64.40;;;;;;6101273;23;20505;-74
2023/06/13 07:32:27;;;;;;;3.80;3.07;;;19.80;63.20;;;;;;6092267;23;20516;-73
2023/06/13 07:34:54;;;;;;;3.97;3.33;;;19.80;63.00;;;;;;6084313;23;21717;-73
2023/06/13 07:37:22;;;;;;;3.77;3.23;;;19.90;63.30;;;;;;6085142;23;20465;-71
2023/06/13 07:39:49;;;;;;;3.30;3.00;;;20.10;63.50;;;;;;6086131;23;20427;-72
2023/06/13 07:42:17;;;;;;;3.53;3.20;;;20.30;63.90;;;;;;6082194;23;20449;-72
2023/06/13 07:44:44;;;;;;;5.03;3.57;;;20.50;60.70;;;;;;6086466;23;20887;-73
2023/06/13 07:47:13;;;;;;;4.90;2.97;;;20.60;59.90;;;;;;6084636;23;20464;-73
2023/06/13 07:49:40;;;;;;;5.13;3.77;;;20.80;59.90;;;;;;6080579;23;20434;-72
2023/06/13 07:52:08;;;;;;;5.27;3.40;;;20.90;60.30;;;;;;6079646;23;20521;-73
2023/06/13 07:54:36;;;;;;;3.37;3.10;;;21.20;59.90;;;;;;6081692;23;20465;-73
2023/06/13 07:57:03;;;;;;;4.00;3.40;;;21.30;59.90;;;;;;6084014;23;20438;-73
2023/06/13 07:59:32;;;;;;;3.73;3.17;;;21.60;58.70;;;;;;6085188;23;20438;-73
2023/06/13 08:01:59;;;;;;;3.70;3.23;;;21.70;58.50;;;;;;6085233;23;20445;-73
2023/06/13 08:04:26;;;;;;;4.50;3.30;;;21.80;58.70;;;;;;6089671;23;20474;-73
2023/06/13 08:06:53;;;;;;;3.30;3.00;;;22.10;58.20;;;;;;6089087;23;20470;-73
2023/06/13 08:09:22;;;;;;;7.30;3.60;;;22.10;58.40;;;;;;6087527;23;20517;-73
2023/06/13 08:11:49;;;;;;;4.33;3.13;;;22.30;59.00;;;;;;6081928;23;21098;-73
2023/06/13 08:14:17;;;;;;;3.67;2.90;;;22.40;58.00;;;;;;6088960;23;20469;-72
2023/06/13 08:16:46;;;;;;;3.63;3.43;;;22.40;58.70;;;;;;6090416;23;20935;-74
2023/06/13 08:19:13;;;;;;;3.37;3.07;;;22.70;58.60;;;;;;6089280;23;20467;-73
2023/06/13 08:21:41;;;;;;;3.43;3.13;;;22.80;57.30;;;;;;6084739;23;20488;-73
2023/06/13 08:24:08;;;;;;;2.97;2.77;;;23.30;56.80;;;;;;6083988;23;20482;-73
2023/06/13 08:26:35;;;;;;;3.60;3.27;;;23.00;56.40;;;;;;6081785;23;20465;-71
2023/06/13 08:29:03;;;;;;;3.40;3.10;;;23.10;57.10;;;;;;6088152;23;20564;-73
2023/06/13 08:31:31;;;;;;;4.10;3.50;;;23.20;57.10;;;;;;6084863;23;20516;-73
2023/06/13 08:34:00;;;;;;;3.90;3.23;;;23.20;56.70;;;;;;6086383;23;20509;-73
2023/06/13 08:36:28;;;;;;;3.83;3.43;;;23.30;57.30;;;;;;6082383;23;20472;-72
2023/06/13 08:38:57;;;;;;;3.50;3.20;;;23.50;57.20;;;;;;6086822;23;20439;-73
2023/06/13 08:41:25;;;;;;;3.87;3.23;;;23.30;56.20;;;;;;6084089;23;20428;-73
2023/06/13 08:43:53;;;;;;;3.50;3.20;;;23.20;56.50;;;;;;6081895;23;21061;-73
2023/06/13 08:46:20;;;;;;;3.77;3.43;;;23.30;57.70;;;;;;6091220;23;20999;-73
2023/06/13 08:48:49;;;;;;;4.60;3.33;;;23.40;58.60;;;;;;6087460;23;20444;-72
2023/06/13 08:51:20;;;;;;;5.30;3.80;;;23.50;56.20;;;;;;6084136;23;20513;-72
2023/06/13 08:53:50;;;;;;;4.97;3.37;;;23.60;57.00;;;;;;6082831;23;20480;-73
2023/06/13 08:56:17;;;;;;;3.77;3.37;;;23.90;57.80;;;;;;6081128;23;20454;-73
2023/06/13 08:58:52;;;;;;;3.53;3.10;;;24.00;56.70;;;;;;6094186;23;20507;-73
2023/06/13 09:01:21;;;;;;;4.67;3.30;;;24.30;57.30;;;;;;6094530;23;20441;-74
2023/06/13 09:03:48;;;;;;;3.60;3.30;;;24.80;56.10;;;;;;6089052;23;20519;-73
2023/06/13 09:06:19;;;;;;;3.90;3.63;;;25.10;55.80;;;;;;6087163;23;20474;-73
2023/06/13 09:08:47;;;;;;;4.27;3.50;;;25.40;55.10;;;;;;6086431;23;20534;-73
2023/06/13 09:11:14;;;;;;;3.97;3.30;;;25.80;54.90;;;;;;6085270;23;20430;-73
2023/06/13 09:13:44;;;;;;;4.00;3.60;;;26.10;53.40;;;;;;6083379;23;20836;-73
2023/06/13 09:16:11;;;;;;;3.80;3.40;;;26.30;52.60;;;;;;6085394;23;20439;-74
2023/06/13 09:18:42;;;;;;;5.53;3.47;;;26.30;52.80;;;;;;6089804;23;20786;-73
2023/06/13 09:21:10;;;;;;;3.50;3.20;;;26.50;52.70;;;;;;6085776;23;20516;-73
2023/06/13 09:23:39;;;;;;;3.50;3.20;;;26.70;52.10;;;;;;6079587;23;20989;-73
2023/06/13 09:26:08;;;;;;;3.77;3.47;;;26.90;52.80;;;;;;6087839;23;20486;-73
2023/06/13 09:28:40;;;;;;;3.37;3.07;;;27.10;51.10;;;;;;6091467;23;20513;-73
2023/06/13 09:31:07;;;;;;;3.60;3.30;;;27.00;51.40;;;;;;6083293;23;20580;-73
2023/06/13 09:33:34;;;;;;;3.60;3.40;;;26.70;50.20;;;;;;6088793;23;20989;-73
2023/06/13 09:36:02;;;;;;;4.80;3.33;;;26.50;51.20;;;;;;6080346;23;20434;-73
2023/06/13 09:38:29;;;;;;;3.77;3.00;;;26.40;51.40;;;;;;6088205;23;20933;-73
2023/06/13 09:40:58;;;;;;;5.20;3.40;;;26.60;50.50;;;;;;6090983;23;20509;-73
2023/06/13 09:43:25;;;;;;;3.17;2.97;;;26.70;51.40;;;;;;6088726;23;20486;-74
2023/06/13 09:45:53;;;;;;;3.10;2.90;;;26.90;49.60;;;;;;6079943;23;20541;-73
2023/06/13 09:48:21;;;;;;;5.40;3.17;;;27.00;49.30;;;;;;6089656;23;20772;-73
2023/06/13 09:50:48;;;;;;;3.43;3.23;;;27.10;48.30;;;;;;6087579;23;20434;-73
2023/06/13 09:53:15;;;;;;;3.30;3.00;;;27.00;48.20;;;;;;6083838;23;20489;-80
2023/06/13 09:55:43;;;;;;;4.00;3.40;;;26.50;48.70;;;;;;6085754;23;20458;-74
2023/06/13 09:58:11;;;;;;;3.50;3.23;;;26.50;49.40;;;;;;6089384;23;20981;-74
2023/06/13 10:00:38;;;;;;;4.80;3.53;;;26.70;51.00;;;;;;6087716;23;20431;-74
2023/06/13 10:03:06;;;;;;;5.23;3.60;;;26.80;50.60;;;;;;6086922;23;20486;-73
2023/06/13 10:05:33;;;;;;;3.87;3.57;;;27.00;49.30;;;;;;6096253;23;20465;-74
2023/06/13 10:08:00;;;;;;;5.77;2.97;;;27.40;49.00;;;;;;6082162;23;20439;-74
2023/06/13 10:10:28;;;;;;;3.77;3.47;;;27.50;47.40;;;;;;6093020;23;20537;-74
2023/06/13 10:12:59;;;;;;;3.63;3.33;;;27.00;47.20;;;;;;6080627;23;20474;-74
2023/06/13 10:15:32;;;;;;;4.63;3.23;;;26.90;48.10;;;;;;6084901;23;20442;-74
2023/06/13 10:18:06;;;;;;;3.50;3.20;;;26.90;48.20;;;;;;6079336;23;20434;-74
2023/06/13 10:20:33;;;;;;;5.03;3.33;;;26.90;48.20;;;;;;6087833;23;20457;-74
2023/06/13 10:23:00;;;;;;;3.47;3.17;;;27.00;48.80;;;;;;6080796;23;20485;-74
2023/06/13 10:25:28;;;;;;;4.20;3.27;;;27.50;48.70;;;;;;6080085;23;20441;-73
2023/06/13 10:28:01;;;;;;;3.13;2.93;;;27.90;48.00;;;;;;6082023;23;20542;-74
2023/06/13 10:30:41;;;;;;;3.43;3.07;;;28.10;46.10;;;;;;6081100;23;20424;-73
2023/06/13 10:33:35;;;;;;;3.30;3.03;;;28.20;47.80;;;;;;6084590;23;20493;-73
2023/06/13 10:36:16;;;;;;;3.80;3.40;;;28.60;46.20;;;;;;6088007;23;20466;-73
2023/06/13 10:39:14;;;;;;;4.13;3.73;;;28.80;47.40;;;;;;6080360;23;20449;-74
2023/06/13 10:42:16;;;;;;;3.37;3.07;;;28.70;45.20;;;;;;6076163;23;20517;-73
2023/06/13 10:44:52;;;;;;;4.23;3.43;;;28.30;45.20;;;;;;5986588;23;20437;-73
2023/06/13 10:47:21;;;;;;;4.63;3.10;;;28.30;46.10;;;;;;6064774;23;20462;-73
2023/06/13 10:49:49;;;;;;;4.03;3.70;;;27.90;46.20;;;;;;6083445;23;20439;-74
2023/06/13 10:52:19;;;;;;;3.60;3.03;;;27.90;46.80;;;;;;6079877;23;20438;-73
2023/06/13 10:54:52;;;;;;;4.90;3.57;;;28.10;46.00;;;;;;6085867;23;20470;-74
2023/06/13 10:57:19;;;;;;;5.60;3.60;;;28.10;45.90;;;;;;6085932;23;20484;-73
2023/06/13 10:59:49;;;;;;;5.00;3.57;;;28.50;46.70;;;;;;6086047;23;20931;-73
2023/06/13 11:02:17;;;;;;;5.13;3.67;;;28.80;46.80;;;;;;6076903;23;20442;-74
2023/06/13 11:04:53;;;;;;;3.67;3.37;;;29.30;45.50;;;;;;6078373;23;20550;-73
2023/06/13 11:07:29;;;;;;;3.30;3.00;;;29.90;44.10;;;;;;6082967;23;20557;-74
2023/06/13 11:10:14;;;;;;;3.93;3.60;;;29.90;43.50;;;;;;6081767;23;20468;-74
2023/06/13 11:12:42;;;;;;;3.67;3.37;;;29.40;43.40;;;;;;6086216;23;20461;-73
2023/06/13 11:15:23;;;;;;;3.07;2.87;;;29.10;43.50;;;;;;6084478;23;20442;-73
2023/06/13 11:18:28;;;;;;;3.87;3.27;;;29.30;44.80;;;;;;6086043;23;20996;-73
2023/06/13 11:20:58;;;;;;;4.70;3.70;;;29.20;43.80;;;;;;6083277;23;20458;-73
2023/06/13 11:23:38;;;;;;;3.47;3.27;;;29.40;43.50;;;;;;6085829;23;20447;-74
2023/06/13 11:26:06;;;;;;;3.33;3.13;;;29.20;42.90;;;;;;6084087;23;20541;-73
2023/06/13 11:28:33;;;;;;;3.83;3.47;;;28.90;43.80;;;;;;6086479;23;20778;-73
2023/06/13 11:31:03;;;;;;;4.97;3.30;;;28.30;44.80;;;;;;6084020;23;20520;-73
2023/06/13 11:33:35;;;;;;;3.40;3.20;;;28.80;45.40;;;;;;6085575;23;20489;-73
2023/06/13 11:36:05;;;;;;;4.13;3.77;;;29.30;44.20;;;;;;6084727;23;20457;-74
2023/06/13 11:38:38;;;;;;;3.73;3.43;;;29.20;43.60;;;;;;6078427;23;20529;-77
2023/06/13 11:41:06;;;;;;;4.77;3.50;;;29.20;44.40;;;;;;6084203;23;20442;-74
2023/06/13 11:43:34;;;;;;;3.60;3.30;;;29.80;42.80;;;;;;6082492;23;20513;-74
2023/06/13 11:46:03;;;;;;;3.97;3.67;;;30.20;43.50;;;;;;6075295;23;20810;-72
2023/06/13 11:48:30;;;;;;;3.70;3.40;;;30.90;41.80;;;;;;6077154;23;20488;-74
2023/06/13 11:51:11;;;;;;;4.10;3.70;;;31.30;42.20;;;;;;6084207;23;20434;-72
2023/06/13 11:53:48;;;;;;;3.63;3.37;;;31.80;41.80;;;;;;6076627;23;22148;-73
2023/06/13 11:56:17;;;;;;;3.63;3.33;;;32.10;41.60;;;;;;6080260;23;20493;-73
2023/06/13 11:58:45;;;;;;;3.33;3.10;;;32.30;41.20;;;;;;6077864;23;20550;-73
2023/06/13 12:01:14;;;;;;;3.93;3.57;;;32.60;41.00;;;;;;6080141;23;20549;-74
2023/06/13 12:03:41;;;;;;;3.90;3.60;;;32.10;40.00;;;;;;6077149;23;20454;-73
2023/06/13 12:06:10;;;;;;;4.10;3.60;;;32.00;40.20;;;;;;6084526;23;20504;-72
2023/06/13 12:08:39;;;;;;;4.20;3.90;;;31.60;40.60;;;;;;6082878;23;20792;-73
2023/06/13 12:11:07;;;;;;;4.00;3.73;;;31.70;40.70;;;;;;6082067;23;20866;-76
2023/06/13 12:13:34;;;;;;;4.33;4.03;;;32.00;41.60;;;;;;6089091;23;20553;-75
2023/06/13 12:16:01;;;;;;;3.93;3.60;;;32.10;39.40;;;;;;6088539;23;20515;-75
2023/06/13 12:18:29;;;;;;;4.40;3.30;;;31.50;41.10;;;;;;6084677;23;21009;-74
2023/06/13 12:20:56;;;;;;;4.13;3.73;;;31.80;41.00;;;;;;6080137;23;20817;-74
2023/06/13 12:23:26;;;;;;;4.10;3.80;;;31.60;40.30;;;;;;6082943;23;20458;-74
2023/06/13 12:25:53;;;;;;;3.50;3.20;;;31.90;40.50;;;;;;6078652;23;20454;-75
2023/06/13 12:28:22;;;;;;;3.73;3.43;;;32.40;40.60;;;;;;6078661;23;20478;-75
2023/06/13 12:30:50;;;;;;;3.40;3.20;;;32.80;40.50;;;;;;6081475;23;20461;-75
2023/06/13 12:33:19;;;;;;;4.53;4.00;;;33.10;39.20;;;;;;6084418;23;20524;-74
2023/06/13 12:35:51;;;;;;;4.17;3.77;;;32.80;39.00;;;;;;6081114;23;20427;-75
2023/06/13 12:38:19;;;;;;;4.13;3.83;;;32.70;39.20;;;;;;6083292;23;20859;-75
2023/06/13 12:40:51;;;;;;;3.77;3.47;;;32.90;39.00;;;;;;6081896;23;20470;-75
2023/06/13 12:43:23;;;;;;;4.20;3.83;;;33.10;37.70;;;;;;6078061;23;20462;-76
2023/06/13 12:45:51;;;;;;;3.80;3.50;;;32.70;39.30;;;;;;6081557;23;20434;-75
2023/06/13 12:48:19;;;;;;;5.40;3.57;;;32.90;39.40;;;;;;6080658;23;20508;-74
2023/06/13 12:50:49;;;;;;;3.50;3.20;;;33.40;38.20;;;;;;6082192;23;20576;-76
2023/06/13 12:53:20;;;;;;;4.80;3.83;;;33.70;38.40;;;;;;6081562;23;20460;-74
2023/06/13 12:55:50;;;;;;;4.70;4.30;;;34.20;38.10;;;;;;6078878;23;20538;-75
2023/06/13 12:58:31;;;;;;;5.50;4.10;;;34.50;37.40;;;;;;6079295;23;20433;-75